sensor_id;sensor_type;location;lat;lon;timestamp;P1;durP1;ratioP1;P2;durP2;ratioP2
2868;SDS011;1442;47.448;8.582;2023-12-28T00:01:22;7.65;;;4.30;;
2868;SDS011;1442;47.448;8.582;2023-12-28T00:03:49;6.57;;;4.10;;
2868;SDS011;1442;47.448;8.582;2023-12-28T00:06:17;7.55;;;4.43;;
2868;SDS011;1442;47.448;8.582;2023-12-28T00:08:44;10.02;;;4.20;;
2868;SDS011;1442;47.448;8.582;2023-12-28T00:11:11;11.10;;;4.85;;
2868;SDS011;1442;47.448;8.582;2023-12-28T00:13:37;10.45;;;4.88;;
2868;SDS011;1442;47.448;8.582;2023-12-28T00:16:05;7.13;;;4.35;;
2868;SDS011;1442;47.448;8.582;2023-12-28T00:18:32;5.13;;;4.00;;
2868;SDS011;1442;47.448;8.582;2023-12-28T00:20:58;6.43;;;3.95;;
2868;SDS011;1442;47.448;8.582;2023-12-28T00:23:27;8.73;;;3.90;;
2868;SDS011;1442;47.448;8.582;2023-12-28T00:25:53;5.15;;;3.63;;
2868;SDS011;1442;47.448;8.582;2023-12-28T00:28:20;6.72;;;3.88;;
2868;SDS011;1442;47.448;8.582;2023-12-28T00:30:47;6.93;;;4.40;;
2868;SDS011;1442;47.448;8.582;2023-12-28T00:33:13;5.82;;;3.50;;
2868;SDS011;1442;47.448;8.582;2023-12-28T00:35:40;6.53;;;3.55;;
2868;SDS011;1442;47.448;8.582;2023-12-28T00:38:07;8.38;;;4.18;;
2868;SDS011;1442;47.448;8.582;2023-12-28T00:40:35;7.45;;;3.83;;
2868;SDS011;1442;47.448;8.582;2023-12-28T00:43:02;6.35;;;3.28;;
2868;SDS011;1442;47.448;8.582;2023-12-28T00:45:29;5.63;;;3.17;;
2868;SDS011;1442;47.448;8.582;2023-12-28T00:47:55;5.55;;;3.33;;
2868;SDS011;1442;47.448;8.582;2023-12-28T00:50:22;4.38;;;2.92;;
2868;SDS011;1442;47.448;8.582;2023-12-28T00:52:50;6.57;;;3.28;;
2868;SDS011;1442;47.448;8.582;2023-12-28T00:55:17;9.25;;;3.47;;
2868;SDS011;1442;47.448;8.582;2023-12-28T00:57:45;3.90;;;2.70;;
2868;SDS011;1442;47.448;8.582;2023-12-28T01:00:12;9.07;;;3.05;;
2868;SDS011;1442;47.448;8.582;2023-12-28T01:02:39;7.32;;;2.63;;
2868;SDS011;1442;47.448;8.582;2023-12-28T01:05:06;4.22;;;2.65;;
2868;SDS011;1442;47.448;8.582;2023-12-28T01:07:33;6.40;;;2.95;;
2868;SDS011;1442;47.448;8.582;2023-12-28T01:10:00;8.55;;;3.17;;
2868;SDS011;1442;47.448;8.582;2023-12-28T01:12:27;4.25;;;2.80;;
2868;SDS011;1442;47.448;8.582;2023-12-28T01:14:55;5.80;;;3.17;;
2868;SDS011;1442;47.448;8.582;2023-12-28T01:17:22;6.57;;;3.67;;
2868;SDS011;1442;47.448;8.582;2023-12-28T01:19:48;5.95;;;3.88;;
2868;SDS011;1442;47.448;8.582;2023-12-28T01:22:15;9.32;;;3.15;;
2868;SDS011;1442;47.448;8.582;2023-12-28T01:24:42;6.13;;;2.97;;
2868;SDS011;1442;47.448;8.582;2023-12-28T01:27:11;6.95;;;3.10;;
2868;SDS011;1442;47.448;8.582;2023-12-28T01:29:38;5.38;;;3.05;;
2868;SDS011;1442;47.448;8.582;2023-12-28T01:32:06;6.03;;;3.15;;
2868;SDS011;1442;47.448;8.582;2023-12-28T01:34:33;5.47;;;3.47;;
2868;SDS011;1442;47.448;8.582;2023-12-28T01:37:00;4.75;;;2.67;;
2868;SDS011;1442;47.448;8.582;2023-12-28T01:39:26;5.80;;;3.20;;
2868;SDS011;1442;47.448;8.582;2023-12-28T01:41:53;5.53;;;2.60;;
2868;SDS011;1442;47.448;8.582;2023-12-28T01:44:20;7.80;;;2.97;;
2868;SDS011;1442;47.448;8.582;2023-12-28T01:46:47;5.90;;;2.92;;
2868;SDS011;1442;47.448;8.582;2023-12-28T01:49:15;4.03;;;2.63;;
2868;SDS011;1442;47.448;8.582;2023-12-28T01:51:42;5.07;;;2.63;;
2868;SDS011;1442;47.448;8.582;2023-12-28T01:54:10;3.78;;;2.60;;
2868;SDS011;1442;47.448;8.582;2023-12-28T01:56:37;5.88;;;3.22;;
2868;SDS011;1442;47.448;8.582;2023-12-28T01:59:05;3.95;;;2.33;;
2868;SDS011;1442;47.448;8.582;2023-12-28T02:01:32;5.63;;;2.67;;
2868;SDS011;1442;47.448;8.582;2023-12-28T02:03:59;3.72;;;2.53;;
2868;SDS011;1442;47.448;8.582;2023-12-28T02:06:27;6.82;;;2.63;;
2868;SDS011;1442;47.448;8.582;2023-12-28T02:08:54;4.32;;;2.10;;
2868;SDS011;1442;47.448;8.582;2023-12-28T02:11:21;4.95;;;2.97;;
2868;SDS011;1442;47.448;8.582;2023-12-28T02:13:48;3.92;;;2.47;;
2868;SDS011;1442;47.448;8.582;2023-12-28T02:16:15;6.20;;;2.78;;
2868;SDS011;1442;47.448;8.582;2023-12-28T02:18:47;4.88;;;2.72;;
2868;SDS011;1442;47.448;8.582;2023-12-28T02:21:18;3.53;;;2.33;;
2868;SDS011;1442;47.448;8.582;2023-12-28T02:23:48;4.18;;;3.05;;
2868;SDS011;1442;47.448;8.582;2023-12-28T02:26:16;5.18;;;2.97;;
2868;SDS011;1442;47.448;8.582;2023-12-28T02:28:44;4.03;;;2.75;;
2868;SDS011;1442;47.448;8.582;2023-12-28T02:31:12;4.85;;;3.47;;
2868;SDS011;1442;47.448;8.582;2023-12-28T02:33:47;4.78;;;3.17;;
2868;SDS011;1442;47.448;8.582;2023-12-28T02:36:17;6.10;;;2.80;;
2868;SDS011;1442;47.448;8.582;2023-12-28T02:38:49;5.78;;;2.83;;
2868;SDS011;1442;47.448;8.582;2023-12-28T02:41:18;7.20;;;3.13;;
2868;SDS011;1442;47.448;8.582;2023-12-28T02:43:46;6.03;;;2.67;;
2868;SDS011;1442;47.448;8.582;2023-12-28T02:46:14;9.05;;;2.38;;
2868;SDS011;1442;47.448;8.582;2023-12-28T02:48:41;4.60;;;2.80;;
2868;SDS011;1442;47.448;8.582;2023-12-28T02:51:08;4.25;;;2.65;;
2868;SDS011;1442;47.448;8.582;2023-12-28T02:53:35;3.50;;;2.40;;
2868;SDS011;1442;47.448;8.582;2023-12-28T02:56:02;3.50;;;2.50;;
2868;SDS011;1442;47.448;8.582;2023-12-28T02:58:30;6.05;;;2.90;;
2868;SDS011;1442;47.448;8.582;2023-12-28T03:00:57;6.60;;;3.28;;
2868;SDS011;1442;47.448;8.582;2023-12-28T03:03:24;4.82;;;2.55;;
2868;SDS011;1442;47.448;8.582;2023-12-28T03:05:50;5.30;;;3.00;;
2868;SDS011;1442;47.448;8.582;2023-12-28T03:08:17;6.65;;;2.58;;
2868;SDS011;1442;47.448;8.582;2023-12-28T03:10:44;3.42;;;2.22;;
2868;SDS011;1442;47.448;8.582;2023-12-28T03:13:10;4.65;;;2.78;;
2868;SDS011;1442;47.448;8.582;2023-12-28T03:15:39;6.43;;;2.45;;
2868;SDS011;1442;47.448;8.582;2023-12-28T03:18:05;7.65;;;3.08;;
2868;SDS011;1442;47.448;8.582;2023-12-28T03:20:32;6.05;;;3.17;;
2868;SDS011;1442;47.448;8.582;2023-12-28T03:22:59;10.48;;;2.63;;
2868;SDS011;1442;47.448;8.582;2023-12-28T03:25:26;5.75;;;3.03;;
2868;SDS011;1442;47.448;8.582;2023-12-28T03:27:52;7.20;;;3.17;;
2868;SDS011;1442;47.448;8.582;2023-12-28T03:30:20;3.65;;;2.72;;
2868;SDS011;1442;47.448;8.582;2023-12-28T03:32:48;4.28;;;3.08;;
2868;SDS011;1442;47.448;8.582;2023-12-28T03:35:14;5.60;;;2.92;;
2868;SDS011;1442;47.448;8.582;2023-12-28T03:37:41;4.13;;;2.78;;
2868;SDS011;1442;47.448;8.582;2023-12-28T03:40:08;6.88;;;3.17;;
2868;SDS011;1442;47.448;8.582;2023-12-28T03:42:36;4.90;;;3.08;;
2868;SDS011;1442;47.448;8.582;2023-12-28T03:45:03;5.20;;;3.50;;
2868;SDS011;1442;47.448;8.582;2023-12-28T03:47:30;4.30;;;2.67;;
2868;SDS011;1442;47.448;8.582;2023-12-28T03:49:58;4.40;;;3.08;;
2868;SDS011;1442;47.448;8.582;2023-12-28T03:52:25;9.40;;;3.20;;
2868;SDS011;1442;47.448;8.582;2023-12-28T03:54:55;6.28;;;2.60;;
2868;SDS011;1442;47.448;8.582;2023-12-28T03:57:21;6.75;;;3.00;;
2868;SDS011;1442;47.448;8.582;2023-12-28T03:59:48;8.00;;;3.33;;
2868;SDS011;1442;47.448;8.582;2023-12-28T04:02:15;5.28;;;2.90;;
2868;SDS011;1442;47.448;8.582;2023-12-28T04:04:41;3.88;;;3.03;;
2868;SDS011;1442;47.448;8.582;2023-12-28T04:07:09;6.57;;;3.40;;
2868;SDS011;1442;47.448;8.582;2023-12-28T04:09:36;5.88;;;3.60;;
2868;SDS011;1442;47.448;8.582;2023-12-28T04:12:03;6.28;;;3.00;;
2868;SDS011;1442;47.448;8.582;2023-12-28T04:14:30;5.55;;;3.72;;
2868;SDS011;1442;47.448;8.582;2023-12-28T04:16:57;5.78;;;3.22;;
2868;SDS011;1442;47.448;8.582;2023-12-28T04:19:24;5.43;;;3.30;;
2868;SDS011;1442;47.448;8.582;2023-12-28T04:21:50;6.72;;;3.13;;
2868;SDS011;1442;47.448;8.582;2023-12-28T04:24:18;5.65;;;3.40;;
2868;SDS011;1442;47.448;8.582;2023-12-28T04:26:45;8.00;;;3.25;;
2868;SDS011;1442;47.448;8.582;2023-12-28T04:29:12;5.97;;;2.72;;
2868;SDS011;1442;47.448;8.582;2023-12-28T04:31:39;5.85;;;3.25;;
2868;SDS011;1442;47.448;8.582;2023-12-28T04:34:06;4.95;;;3.17;;
2868;SDS011;1442;47.448;8.582;2023-12-28T04:36:38;6.18;;;3.67;;
2868;SDS011;1442;47.448;8.582;2023-12-28T04:39:06;6.97;;;2.65;;
2868;SDS011;1442;47.448;8.582;2023-12-28T04:41:34;4.78;;;2.88;;
2868;SDS011;1442;47.448;8.582;2023-12-28T04:44:01;4.72;;;3.35;;
2868;SDS011;1442;47.448;8.582;2023-12-28T04:46:28;5.18;;;3.17;;
2868;SDS011;1442;47.448;8.582;2023-12-28T04:48:55;6.78;;;3.40;;
2868;SDS011;1442;47.448;8.582;2023-12-28T04:51:22;3.97;;;2.95;;
2868;SDS011;1442;47.448;8.582;2023-12-28T04:53:48;5.85;;;3.08;;
2868;SDS011;1442;47.448;8.582;2023-12-28T04:56:17;4.65;;;2.90;;
2868;SDS011;1442;47.448;8.582;2023-12-28T04:58:46;5.95;;;3.10;;
2868;SDS011;1442;47.448;8.582;2023-12-28T05:01:13;8.75;;;3.33;;
2868;SDS011;1442;47.448;8.582;2023-12-28T05:03:39;5.55;;;3.28;;
2868;SDS011;1442;47.448;8.582;2023-12-28T05:06:06;3.85;;;2.80;;
2868;SDS011;1442;47.448;8.582;2023-12-28T05:08:34;4.47;;;2.80;;
2868;SDS011;1442;47.448;8.582;2023-12-28T05:11:01;4.53;;;2.63;;
2868;SDS011;1442;47.448;8.582;2023-12-28T05:13:27;4.32;;;3.00;;
2868;SDS011;1442;47.448;8.582;2023-12-28T05:15:55;7.40;;;3.28;;
2868;SDS011;1442;47.448;8.582;2023-12-28T05:18:22;5.05;;;3.25;;
2868;SDS011;1442;47.448;8.582;2023-12-28T05:20:49;9.02;;;3.17;;
2868;SDS011;1442;47.448;8.582;2023-12-28T05:23:15;5.95;;;3.08;;
2868;SDS011;1442;47.448;8.582;2023-12-28T05:25:42;6.82;;;3.33;;
2868;SDS011;1442;47.448;8.582;2023-12-28T05:28:11;5.78;;;3.03;;
2868;SDS011;1442;47.448;8.582;2023-12-28T05:30:38;5.68;;;3.72;;
2868;SDS011;1442;47.448;8.582;2023-12-28T05:33:06;6.40;;;3.22;;
2868;SDS011;1442;47.448;8.582;2023-12-28T05:35:32;5.57;;;3.38;;
2868;SDS011;1442;47.448;8.582;2023-12-28T05:37:59;8.82;;;3.03;;
2868;SDS011;1442;47.448;8.582;2023-12-28T05:40:26;4.30;;;3.00;;
2868;SDS011;1442;47.448;8.582;2023-12-28T05:42:53;5.63;;;2.90;;
2868;SDS011;1442;47.448;8.582;2023-12-28T05:45:19;4.32;;;2.88;;
2868;SDS011;1442;47.448;8.582;2023-12-28T05:47:46;9.55;;;3.55;;
2868;SDS011;1442;47.448;8.582;2023-12-28T05:50:15;4.05;;;2.55;;
2868;SDS011;1442;47.448;8.582;2023-12-28T05:52:41;3.97;;;2.72;;
2868;SDS011;1442;47.448;8.582;2023-12-28T05:55:08;6.03;;;3.00;;
2868;SDS011;1442;47.448;8.582;2023-12-28T05:57:35;5.63;;;3.38;;
2868;SDS011;1442;47.448;8.582;2023-12-28T06:00:02;6.05;;;3.22;;
2868;SDS011;1442;47.448;8.582;2023-12-28T06:02:31;5.47;;;3.25;;
2868;SDS011;1442;47.448;8.582;2023-12-28T06:04:58;8.02;;;3.92;;
2868;SDS011;1442;47.448;8.582;2023-12-28T06:07:26;6.63;;;3.90;;
2868;SDS011;1442;47.448;8.582;2023-12-28T06:09:53;5.97;;;3.55;;
2868;SDS011;1442;47.448;8.582;2023-12-28T06:12:19;5.45;;;3.20;;
2868;SDS011;1442;47.448;8.582;2023-12-28T06:14:46;5.85;;;2.90;;
2868;SDS011;1442;47.448;8.582;2023-12-28T06:17:13;4.03;;;2.67;;
2868;SDS011;1442;47.448;8.582;2023-12-28T06:19:40;11.05;;;3.15;;
2868;SDS011;1442;47.448;8.582;2023-12-28T06:22:07;4.50;;;3.45;;
2868;SDS011;1442;47.448;8.582;2023-12-28T06:24:38;5.10;;;3.00;;
2868;SDS011;1442;47.448;8.582;2023-12-28T06:27:05;7.57;;;2.90;;
2868;SDS011;1442;47.448;8.582;2023-12-28T06:29:32;5.05;;;3.30;;
2868;SDS011;1442;47.448;8.582;2023-12-28T06:31:59;5.38;;;3.25;;
2868;SDS011;1442;47.448;8.582;2023-12-28T06:34:25;6.00;;;3.20;;
2868;SDS011;1442;47.448;8.582;2023-12-28T06:36:52;5.97;;;2.80;;
2868;SDS011;1442;47.448;8.582;2023-12-28T06:39:19;5.45;;;3.10;;
2868;SDS011;1442;47.448;8.582;2023-12-28T06:41:47;4.97;;;2.90;;
2868;SDS011;1442;47.448;8.582;2023-12-28T06:44:14;4.82;;;3.15;;
2868;SDS011;1442;47.448;8.582;2023-12-28T06:46:41;6.90;;;3.22;;
2868;SDS011;1442;47.448;8.582;2023-12-28T06:49:08;4.93;;;3.08;;
2868;SDS011;1442;47.448;8.582;2023-12-28T06:51:35;6.78;;;3.58;;
2868;SDS011;1442;47.448;8.582;2023-12-28T06:54:02;6.38;;;3.47;;
2868;SDS011;1442;47.448;8.582;2023-12-28T06:56:29;7.38;;;3.05;;
2868;SDS011;1442;47.448;8.582;2023-12-28T06:58:57;6.43;;;3.30;;
2868;SDS011;1442;47.448;8.582;2023-12-28T07:01:24;4.82;;;2.95;;
2868;SDS011;1442;47.448;8.582;2023-12-28T07:03:51;6.57;;;2.67;;
2868;SDS011;1442;47.448;8.582;2023-12-28T07:06:18;4.18;;;2.25;;
2868;SDS011;1442;47.448;8.582;2023-12-28T07:08:44;3.78;;;2.20;;
2868;SDS011;1442;47.448;8.582;2023-12-28T07:11:11;4.18;;;2.45;;
2868;SDS011;1442;47.448;8.582;2023-12-28T07:13:38;3.13;;;2.10;;
2868;SDS011;1442;47.448;8.582;2023-12-28T07:16:06;4.80;;;2.60;;
2868;SDS011;1442;47.448;8.582;2023-12-28T07:18:33;5.28;;;2.70;;
2868;SDS011;1442;47.448;8.582;2023-12-28T07:21:00;5.50;;;2.83;;
2868;SDS011;1442;47.448;8.582;2023-12-28T07:23:27;7.45;;;3.60;;
2868;SDS011;1442;47.448;8.582;2023-12-28T07:25:54;7.85;;;3.53;;
2868;SDS011;1442;47.448;8.582;2023-12-28T07:28:20;9.30;;;3.60;;
2868;SDS011;1442;47.448;8.582;2023-12-28T07:30:47;7.35;;;3.42;;
2868;SDS011;1442;47.448;8.582;2023-12-28T07:33:15;7.53;;;3.70;;
2868;SDS011;1442;47.448;8.582;2023-12-28T07:35:42;7.38;;;3.47;;
2868;SDS011;1442;47.448;8.582;2023-12-28T07:38:09;10.20;;;3.70;;
2868;SDS011;1442;47.448;8.582;2023-12-28T07:40:35;12.50;;;5.05;;
2868;SDS011;1442;47.448;8.582;2023-12-28T07:43:02;13.55;;;4.47;;
2868;SDS011;1442;47.448;8.582;2023-12-28T07:45:29;6.65;;;3.50;;
2868;SDS011;1442;47.448;8.582;2023-12-28T07:47:57;5.57;;;2.95;;
2868;SDS011;1442;47.448;8.582;2023-12-28T07:50:26;14.95;;;6.30;;
2868;SDS011;1442;47.448;8.582;2023-12-28T07:52:52;12.05;;;5.38;;
2868;SDS011;1442;47.448;8.582;2023-12-28T07:55:19;8.75;;;3.60;;
2868;SDS011;1442;47.448;8.582;2023-12-28T07:57:46;7.97;;;3.58;;
2868;SDS011;1442;47.448;8.582;2023-12-28T08:00:13;7.53;;;3.20;;
2868;SDS011;1442;47.448;8.582;2023-12-28T08:02:40;6.63;;;3.55;;
2868;SDS011;1442;47.448;8.582;2023-12-28T08:05:07;9.80;;;4.13;;
2868;SDS011;1442;47.448;8.582;2023-12-28T08:07:35;8.15;;;3.53;;
2868;SDS011;1442;47.448;8.582;2023-12-28T08:10:03;6.22;;;4.03;;
2868;SDS011;1442;47.448;8.582;2023-12-28T08:12:30;7.47;;;3.58;;
2868;SDS011;1442;47.448;8.582;2023-12-28T08:14:58;7.75;;;3.38;;
2868;SDS011;1442;47.448;8.582;2023-12-28T08:17:25;5.90;;;2.88;;
2868;SDS011;1442;47.448;8.582;2023-12-28T08:19:52;8.95;;;3.80;;
2868;SDS011;1442;47.448;8.582;2023-12-28T08:22:19;11.77;;;5.18;;
2868;SDS011;1442;47.448;8.582;2023-12-28T08:24:47;15.30;;;5.53;;
2868;SDS011;1442;47.448;8.582;2023-12-28T08:27:13;13.40;;;4.78;;
2868;SDS011;1442;47.448;8.582;2023-12-28T08:29:40;9.93;;;5.03;;
2868;SDS011;1442;47.448;8.582;2023-12-28T08:32:07;10.70;;;5.45;;
2868;SDS011;1442;47.448;8.582;2023-12-28T08:34:35;9.60;;;4.57;;
2868;SDS011;1442;47.448;8.582;2023-12-28T08:37:02;7.18;;;4.32;;
2868;SDS011;1442;47.448;8.582;2023-12-28T08:39:29;6.63;;;4.03;;
2868;SDS011;1442;47.448;8.582;2023-12-28T08:41:57;7.90;;;3.92;;
2868;SDS011;1442;47.448;8.582;2023-12-28T08:44:24;6.30;;;4.05;;
2868;SDS011;1442;47.448;8.582;2023-12-28T08:46:51;6.18;;;3.13;;
2868;SDS011;1442;47.448;8.582;2023-12-28T08:49:18;6.00;;;3.08;;
2868;SDS011;1442;47.448;8.582;2023-12-28T08:51:44;5.75;;;3.60;;
2868;SDS011;1442;47.448;8.582;2023-12-28T08:54:11;8.05;;;3.80;;
2868;SDS011;1442;47.448;8.582;2023-12-28T08:56:39;6.07;;;3.55;;
2868;SDS011;1442;47.448;8.582;2023-12-28T08:59:07;4.90;;;3.30;;
2868;SDS011;1442;47.448;8.582;2023-12-28T09:01:34;5.03;;;3.28;;
2868;SDS011;1442;47.448;8.582;2023-12-28T09:04:02;5.35;;;3.42;;
2868;SDS011;1442;47.448;8.582;2023-12-28T09:06:29;8.13;;;3.15;;
2868;SDS011;1442;47.448;8.582;2023-12-28T09:08:55;7.45;;;3.22;;
2868;SDS011;1442;47.448;8.582;2023-12-28T09:11:23;4.07;;;2.83;;
2868;SDS011;1442;47.448;8.582;2023-12-28T09:13:50;6.53;;;3.10;;
2868;SDS011;1442;47.448;8.582;2023-12-28T09:16:18;5.50;;;3.00;;
2868;SDS011;1442;47.448;8.582;2023-12-28T09:18:44;5.25;;;3.28;;
2868;SDS011;1442;47.448;8.582;2023-12-28T09:21:11;8.68;;;3.65;;
2868;SDS011;1442;47.448;8.582;2023-12-28T09:23:38;8.60;;;3.22;;
2868;SDS011;1442;47.448;8.582;2023-12-28T09:26:05;4.93;;;2.70;;
2868;SDS011;1442;47.448;8.582;2023-12-28T09:28:32;6.05;;;2.97;;
2868;SDS011;1442;47.448;8.582;2023-12-28T09:30:59;7.72;;;3.33;;
2868;SDS011;1442;47.448;8.582;2023-12-28T09:33:28;6.03;;;3.47;;
2868;SDS011;1442;47.448;8.582;2023-12-28T09:35:54;8.05;;;4.63;;
2868;SDS011;1442;47.448;8.582;2023-12-28T09:38:21;10.48;;;4.50;;
2868;SDS011;1442;47.448;8.582;2023-12-28T09:40:49;6.35;;;3.67;;
2868;SDS011;1442;47.448;8.582;2023-12-28T09:43:21;8.23;;;3.40;;
2868;SDS011;1442;47.448;8.582;2023-12-28T09:45:49;7.95;;;3.80;;
2868;SDS011;1442;47.448;8.582;2023-12-28T09:48:16;7.00;;;3.20;;
2868;SDS011;1442;47.448;8.582;2023-12-28T09:50:44;6.05;;;3.53;;
2868;SDS011;1442;47.448;8.582;2023-12-28T09:53:12;6.90;;;3.78;;
2868;SDS011;1442;47.448;8.582;2023-12-28T09:55:39;10.02;;;3.88;;
2868;SDS011;1442;47.448;8.582;2023-12-28T09:58:06;6.72;;;3.72;;
2868;SDS011;1442;47.448;8.582;2023-12-28T10:00:33;8.00;;;4.38;;
2868;SDS011;1442;47.448;8.582;2023-12-28T10:03:00;7.20;;;4.40;;
2868;SDS011;1442;47.448;8.582;2023-12-28T10:05:28;5.50;;;3.80;;
2868;SDS011;1442;47.448;8.582;2023-12-28T10:07:56;7.40;;;4.05;;
2868;SDS011;1442;47.448;8.582;2023-12-28T10:10:23;7.70;;;3.75;;
2868;SDS011;1442;47.448;8.582;2023-12-28T10:12:49;8.70;;;4.10;;
2868;SDS011;1442;47.448;8.582;2023-12-28T10:15:17;7.53;;;3.90;;
2868;SDS011;1442;47.448;8.582;2023-12-28T10:17:45;9.15;;;3.80;;
2868;SDS011;1442;47.448;8.582;2023-12-28T10:20:12;10.27;;;4.63;;
2868;SDS011;1442;47.448;8.582;2023-12-28T10:22:38;7.80;;;3.53;;
2868;SDS011;1442;47.448;8.582;2023-12-28T10:25:07;11.10;;;3.42;;
2868;SDS011;1442;47.448;8.582;2023-12-28T10:27:37;6.90;;;3.25;;
2868;SDS011;1442;47.448;8.582;2023-12-28T10:30:06;4.30;;;2.72;;
2868;SDS011;1442;47.448;8.582;2023-12-28T10:32:34;5.43;;;2.70;;
2868;SDS011;1442;47.448;8.582;2023-12-28T10:35:01;6.30;;;3.20;;
2868;SDS011;1442;47.448;8.582;2023-12-28T10:37:27;9.38;;;3.40;;
2868;SDS011;1442;47.448;8.582;2023-12-28T10:39:58;7.95;;;3.78;;
2868;SDS011;1442;47.448;8.582;2023-12-28T10:42:28;8.15;;;3.65;;
2868;SDS011;1442;47.448;8.582;2023-12-28T10:44:59;10.32;;;3.80;;
2868;SDS011;1442;47.448;8.582;2023-12-28T10:47:30;8.55;;;4.07;;
2868;SDS011;1442;47.448;8.582;2023-12-28T10:49:58;6.50;;;3.88;;
2868;SDS011;1442;47.448;8.582;2023-12-28T10:52:30;8.17;;;3.73;;
2868;SDS011;1442;47.448;8.582;2023-12-28T10:55:01;8.48;;;4.13;;
2868;SDS011;1442;47.448;8.582;2023-12-28T10:57:44;9.25;;;3.78;;
2868;SDS011;1442;47.448;8.582;2023-12-28T11:00:22;6.88;;;3.58;;
2868;SDS011;1442;47.448;8.582;2023-12-28T11:02:51;9.73;;;4.45;;
2868;SDS011;1442;47.448;8.582;2023-12-28T11:05:19;9.55;;;4.40;;
2868;SDS011;1442;47.448;8.582;2023-12-28T11:07:47;11.00;;;4.53;;
2868;SDS011;1442;47.448;8.582;2023-12-28T11:10:18;10.95;;;4.80;;
2868;SDS011;1442;47.448;8.582;2023-12-28T11:12:47;8.23;;;4.47;;
2868;SDS011;1442;47.448;8.582;2023-12-28T11:15:14;10.35;;;4.93;;
2868;SDS011;1442;47.448;8.582;2023-12-28T11:17:41;8.60;;;4.75;;
2868;SDS011;1442;47.448;8.582;2023-12-28T11:20:09;7.55;;;4.45;;
2868;SDS011;1442;47.448;8.582;2023-12-28T11:22:37;8.75;;;4.13;;
2868;SDS011;1442;47.448;8.582;2023-12-28T11:25:05;7.63;;;4.05;;
2868;SDS011;1442;47.448;8.582;2023-12-28T11:27:33;8.15;;;3.65;;
2868;SDS011;1442;47.448;8.582;2023-12-28T11:30:02;8.43;;;4.10;;
2868;SDS011;1442;47.448;8.582;2023-12-28T11:32:32;7.38;;;4.22;;
2868;SDS011;1442;47.448;8.582;2023-12-28T11:34:58;7.32;;;4.75;;
2868;SDS011;1442;47.448;8.582;2023-12-28T11:37:26;9.75;;;4.45;;
2868;SDS011;1442;47.448;8.582;2023-12-28T11:39:53;6.70;;;3.70;;
2868;SDS011;1442;47.448;8.582;2023-12-28T11:42:22;11.18;;;4.75;;
2868;SDS011;1442;47.448;8.582;2023-12-28T11:44:53;7.47;;;3.88;;
2868;SDS011;1442;47.448;8.582;2023-12-28T11:47:23;8.18;;;3.50;;
2868;SDS011;1442;47.448;8.582;2023-12-28T11:49:52;9.82;;;4.57;;
2868;SDS011;1442;47.448;8.582;2023-12-28T11:52:23;6.80;;;3.80;;
2868;SDS011;1442;47.448;8.582;2023-12-28T11:54:50;8.40;;;3.78;;
2868;SDS011;1442;47.448;8.582;2023-12-28T11:57:17;5.60;;;3.10;;
2868;SDS011;1442;47.448;8.582;2023-12-28T11:59:44;8.48;;;3.75;;
2868;SDS011;1442;47.448;8.582;2023-12-28T12:02:12;6.80;;;3.60;;
2868;SDS011;1442;47.448;8.582;2023-12-28T12:04:41;10.70;;;3.47;;
2868;SDS011;1442;47.448;8.582;2023-12-28T12:07:07;9.00;;;3.80;;
2868;SDS011;1442;47.448;8.582;2023-12-28T12:09:34;7.18;;;3.47;;
2868;SDS011;1442;47.448;8.582;2023-12-28T12:12:01;5.45;;;3.40;;
2868;SDS011;1442;47.448;8.582;2023-12-28T12:14:28;8.43;;;3.92;;
2868;SDS011;1442;47.448;8.582;2023-12-28T12:16:56;7.93;;;3.60;;
2868;SDS011;1442;47.448;8.582;2023-12-28T12:19:23;9.77;;;4.15;;
2868;SDS011;1442;47.448;8.582;2023-12-28T12:21:52;9.55;;;4.55;;
2868;SDS011;1442;47.448;8.582;2023-12-28T12:24:19;10.43;;;4.50;;
2868;SDS011;1442;47.448;8.582;2023-12-28T12:26:47;6.43;;;4.13;;
2868;SDS011;1442;47.448;8.582;2023-12-28T12:29:14;10.23;;;4.03;;
2868;SDS011;1442;47.448;8.582;2023-12-28T12:31:41;8.68;;;4.47;;
2868;SDS011;1442;47.448;8.582;2023-12-28T12:34:08;7.32;;;3.70;;
2868;SDS011;1442;47.448;8.582;2023-12-28T12:36:35;7.55;;;4.00;;
2868;SDS011;1442;47.448;8.582;2023-12-28T12:39:04;6.15;;;3.88;;
2868;SDS011;1442;47.448;8.582;2023-12-28T12:41:31;8.25;;;4.57;;
2868;SDS011;1442;47.448;8.582;2023-12-28T12:43:58;13.00;;;4.43;;
2868;SDS011;1442;47.448;8.582;2023-12-28T12:46:25;10.38;;;4.57;;
2868;SDS011;1442;47.448;8.582;2023-12-28T12:48:55;8.38;;;4.18;;
2868;SDS011;1442;47.448;8.582;2023-12-28T12:51:22;15.68;;;4.70;;
2868;SDS011;1442;47.448;8.582;2023-12-28T12:53:49;18.45;;;5.53;;
2868;SDS011;1442;47.448;8.582;2023-12-28T12:56:17;9.57;;;4.53;;
2868;SDS011;1442;47.448;8.582;2023-12-28T12:58:45;11.57;;;4.80;;
2868;SDS011;1442;47.448;8.582;2023-12-28T13:01:11;9.82;;;4.38;;
2868;SDS011;1442;47.448;8.582;2023-12-28T13:03:39;7.28;;;4.68;;
2868;SDS011;1442;47.448;8.582;2023-12-28T13:06:06;7.70;;;3.80;;
2868;SDS011;1442;47.448;8.582;2023-12-28T13:08:33;8.60;;;5.38;;
2868;SDS011;1442;47.448;8.582;2023-12-28T13:11:00;7.18;;;4.38;;
2868;SDS011;1442;47.448;8.582;2023-12-28T13:13:28;7.70;;;4.38;;
2868;SDS011;1442;47.448;8.582;2023-12-28T13:15:55;8.25;;;4.82;;
2868;SDS011;1442;47.448;8.582;2023-12-28T13:18:21;8.32;;;4.30;;
2868;SDS011;1442;47.448;8.582;2023-12-28T13:20:48;7.40;;;3.40;;
2868;SDS011;1442;47.448;8.582;2023-12-28T13:23:15;7.97;;;4.15;;
2868;SDS011;1442;47.448;8.582;2023-12-28T13:25:42;12.05;;;4.47;;
2868;SDS011;1442;47.448;8.582;2023-12-28T13:28:09;9.02;;;3.92;;
2868;SDS011;1442;47.448;8.582;2023-12-28T13:30:38;7.40;;;4.50;;
2868;SDS011;1442;47.448;8.582;2023-12-28T13:33:05;8.05;;;4.85;;
2868;SDS011;1442;47.448;8.582;2023-12-28T13:35:32;7.70;;;4.57;;
2868;SDS011;1442;47.448;8.582;2023-12-28T13:37:59;7.47;;;4.88;;
2868;SDS011;1442;47.448;8.582;2023-12-28T13:40:26;9.52;;;4.60;;
2868;SDS011;1442;47.448;8.582;2023-12-28T13:42:53;8.02;;;4.15;;
2868;SDS011;1442;47.448;8.582;2023-12-28T13:45:20;7.53;;;4.45;;
2868;SDS011;1442;47.448;8.582;2023-12-28T13:47:48;12.15;;;4.80;;
2868;SDS011;1442;47.448;8.582;2023-12-28T13:50:14;11.77;;;5.32;;
2868;SDS011;1442;47.448;8.582;2023-12-28T13:52:41;6.50;;;4.80;;
2868;SDS011;1442;47.448;8.582;2023-12-28T13:55:08;10.90;;;4.47;;
2868;SDS011;1442;47.448;8.582;2023-12-28T13:57:35;7.35;;;4.60;;
2868;SDS011;1442;47.448;8.582;2023-12-28T14:00:01;7.78;;;4.55;;
2868;SDS011;1442;47.448;8.582;2023-12-28T14:02:30;6.05;;;4.05;;
2868;SDS011;1442;47.448;8.582;2023-12-28T14:04:58;7.90;;;4.10;;
2868;SDS011;1442;47.448;8.582;2023-12-28T14:07:25;5.55;;;3.85;;
2868;SDS011;1442;47.448;8.582;2023-12-28T14:09:52;7.60;;;3.92;;
2868;SDS011;1442;47.448;8.582;2023-12-28T14:12:18;9.25;;;4.07;;
2868;SDS011;1442;47.448;8.582;2023-12-28T14:14:45;8.80;;;4.55;;
2868;SDS011;1442;47.448;8.582;2023-12-28T14:17:12;8.07;;;4.65;;
2868;SDS011;1442;47.448;8.582;2023-12-28T14:19:40;7.00;;;4.20;;
2868;SDS011;1442;47.448;8.582;2023-12-28T14:22:09;10.18;;;4.65;;
2868;SDS011;1442;47.448;8.582;2023-12-28T14:24:36;7.45;;;4.95;;
2868;SDS011;1442;47.448;8.582;2023-12-28T14:27:03;10.55;;;5.20;;
2868;SDS011;1442;47.448;8.582;2023-12-28T14:29:31;11.48;;;5.57;;
2868;SDS011;1442;47.448;8.582;2023-12-28T14:31:58;7.65;;;4.80;;
2868;SDS011;1442;47.448;8.582;2023-12-28T14:34:26;10.40;;;4.70;;
2868;SDS011;1442;47.448;8.582;2023-12-28T14:36:56;8.77;;;4.68;;
2868;SDS011;1442;47.448;8.582;2023-12-28T14:39:24;7.20;;;5.00;;
2868;SDS011;1442;47.448;8.582;2023-12-28T14:41:51;7.85;;;5.07;;
2868;SDS011;1442;47.448;8.582;2023-12-28T14:44:18;8.63;;;4.93;;
2868;SDS011;1442;47.448;8.582;2023-12-28T14:46:45;9.65;;;5.28;;
2868;SDS011;1442;47.448;8.582;2023-12-28T14:49:11;6.68;;;4.55;;
2868;SDS011;1442;47.448;8.582;2023-12-28T14:51:38;11.18;;;4.82;;
2868;SDS011;1442;47.448;8.582;2023-12-28T14:54:05;8.10;;;5.00;;
2868;SDS011;1442;47.448;8.582;2023-12-28T14:56:33;13.45;;;4.45;;
2868;SDS011;1442;47.448;8.582;2023-12-28T14:59:00;10.07;;;4.85;;
2868;SDS011;1442;47.448;8.582;2023-12-28T15:01:26;10.40;;;4.45;;
2868;SDS011;1442;47.448;8.582;2023-12-28T15:03:53;8.32;;;4.80;;
2868;SDS011;1442;47.448;8.582;2023-12-28T15:06:20;7.88;;;4.40;;
2868;SDS011;1442;47.448;8.582;2023-12-28T15:08:46;10.20;;;5.38;;
2868;SDS011;1442;47.448;8.582;2023-12-28T15:11:13;11.45;;;5.88;;
2868;SDS011;1442;47.448;8.582;2023-12-28T15:13:42;15.95;;;4.95;;